createdAt,value
2022-12-08T00:02:02.564Z,20.95
2022-12-08T00:06:21.129Z,21.98
2022-12-08T00:10:48.556Z,22.00
2022-12-08T00:14:49.776Z,21.90
2022-12-08T00:18:52.745Z,21.95
2022-12-08T00:22:55.562Z,21.10
2022-12-08T00:26:59.784Z,22.45
2022-12-08T00:31:08.981Z,22.30
2022-12-08T00:35:12.023Z,21.77
2022-12-08T00:39:16.086Z,22.48
2022-12-08T00:43:20.324Z,22.77
2022-12-08T00:47:25.077Z,23.10
2022-12-08T00:51:28.131Z,23.73
2022-12-08T00:55:31.048Z,22.98
2022-12-08T00:59:35.299Z,24.00
2022-12-08T01:03:38.357Z,22.98
2022-12-08T01:07:41.341Z,24.70
2022-12-08T01:11:45.421Z,24.25
2022-12-08T01:15:49.652Z,23.05
2022-12-08T01:19:52.651Z,23.05
2022-12-08T01:23:56.117Z,21.75
2022-12-08T01:27:58.928Z,22.40
2022-12-08T01:32:03.379Z,21.42
2022-12-08T01:36:06.777Z,21.27
2022-12-08T01:40:10.535Z,20.80
2022-12-08T01:44:50.532Z,21.38
2022-12-08T01:48:59.497Z,19.95
2022-12-08T01:53:08.786Z,20.80
2022-12-08T01:57:15.113Z,18.30
2022-12-08T02:01:18.631Z,18.35
2022-12-08T02:05:27.113Z,18.20
2022-12-08T02:09:30.152Z,17.38
2022-12-08T02:13:36.216Z,15.98
2022-12-08T02:17:52.180Z,14.10
2022-12-08T02:22:02.464Z,14.98
2022-12-08T02:26:42.183Z,14.73
2022-12-08T02:30:51.802Z,13.30
2022-12-08T02:35:01.486Z,15.07
2022-12-08T02:39:16.469Z,13.95
2022-12-08T02:43:28.041Z,14.57
2022-12-08T02:47:32.224Z,15.43
2022-12-08T02:51:36.472Z,15.63
2022-12-08T02:55:52.363Z,15.95
2022-12-08T03:00:05.982Z,16.02
2022-12-08T03:04:15.247Z,17.30
2022-12-08T03:08:27.716Z,17.85
2022-12-08T03:12:35.059Z,18.77
2022-12-08T03:16:41.302Z,18.13
2022-12-08T03:20:46.848Z,17.92
2022-12-08T03:24:51.552Z,15.65
2022-12-08T03:28:55.822Z,17.45
2022-12-08T03:33:05.120Z,17.23
2022-12-08T03:37:08.243Z,17.38
2022-12-08T03:41:21.691Z,17.13
2022-12-08T03:45:24.541Z,19.83
2022-12-08T03:49:27.357Z,18.27
2022-12-08T03:53:30.148Z,18.42
2022-12-08T03:57:34.308Z,17.23
2022-12-08T04:01:37.537Z,18.30
2022-12-08T04:05:40.442Z,17.52
2022-12-08T04:09:43.274Z,17.50
2022-12-08T04:13:47.516Z,17.10
2022-12-08T04:17:50.503Z,16.30
2022-12-08T04:21:54.085Z,14.95
2022-12-08T04:25:56.870Z,14.52
2022-12-08T04:30:01.036Z,15.10
2022-12-08T04:34:03.907Z,16.38
2022-12-08T04:38:06.783Z,16.27
2022-12-08T04:42:09.585Z,15.05
2022-12-08T04:46:14.001Z,14.65
2022-12-08T04:50:16.943Z,15.55
2022-12-08T04:54:19.745Z,15.90
2022-12-08T04:58:22.973Z,15.57
2022-12-08T05:02:27.291Z,15.30
2022-12-08T05:06:30.120Z,13.63
2022-12-08T05:10:33.443Z,13.82
2022-12-08T05:14:36.644Z,14.10
2022-12-08T05:18:42.633Z,12.60
2022-12-08T05:22:45.708Z,11.63
2022-12-08T05:26:48.503Z,11.82
2022-12-08T05:30:51.424Z,11.57
2022-12-08T05:34:55.618Z,11.32
2022-12-08T05:38:58.789Z,11.93
2022-12-08T05:43:01.625Z,13.07
2022-12-08T05:47:04.922Z,11.77
2022-12-08T05:51:19.546Z,11.50
2022-12-08T05:55:22.378Z,11.77
2022-12-08T05:59:25.371Z,12.88
2022-12-08T06:03:28.254Z,11.50
2022-12-08T06:07:32.419Z,12.60
2022-12-08T06:11:36.176Z,12.02
2022-12-08T06:15:39.657Z,11.95
2022-12-08T06:19:42.795Z,11.80
2022-12-08T06:23:49.105Z,11.32
2022-12-08T06:27:51.957Z,12.00
2022-12-08T06:31:54.854Z,11.77
2022-12-08T06:35:59.832Z,12.52
2022-12-08T06:40:04.484Z,11.90
2022-12-08T06:44:07.528Z,12.20
2022-12-08T06:48:10.344Z,12.52
2022-12-08T06:52:13.169Z,12.30
2022-12-08T06:56:19.921Z,12.52
2022-12-08T07:00:23.262Z,11.82
2022-12-08T07:04:26.089Z,11.38
2022-12-08T07:08:28.965Z,11.60
2022-12-08T07:12:33.241Z,12.10
2022-12-08T07:16:36.100Z,11.25
2022-12-08T07:20:39.185Z,11.27
2022-12-08T07:24:42.024Z,11.43
2022-12-08T07:28:46.204Z,11.63
2022-12-08T07:32:49.066Z,11.75
2022-12-08T07:36:51.905Z,12.93
2022-12-08T07:40:55.306Z,12.32
2022-12-08T07:44:59.488Z,14.35
2022-12-08T07:49:02.288Z,14.23
2022-12-08T07:53:05.232Z,16.05
2022-12-08T07:57:09.508Z,17.65
2022-12-08T08:01:22.487Z,12.10
2022-12-08T08:05:25.517Z,12.73
2022-12-08T08:09:28.340Z,13.25
2022-12-08T08:13:31.158Z,11.88
2022-12-08T08:17:36.434Z,11.25
2022-12-08T08:21:46.709Z,10.23
2022-12-08T08:25:49.652Z,11.13
2022-12-08T08:29:52.523Z,11.82
2022-12-08T08:33:57.468Z,13.30
2022-12-08T08:38:00.326Z,12.40
2022-12-08T08:42:03.232Z,12.48
2022-12-08T08:46:08.786Z,10.90
2022-12-08T08:50:13.128Z,10.70
2022-12-08T08:54:15.999Z,11.82
2022-12-08T08:58:19.201Z,11.85
2022-12-08T09:02:22.746Z,10.70
2022-12-08T09:06:28.308Z,10.18
2022-12-08T09:10:31.427Z,9.43
2022-12-08T09:14:34.252Z,10.48
2022-12-08T09:18:37.081Z,10.07
2022-12-08T09:22:41.259Z,9.70
2022-12-08T09:26:45.077Z,11.07
2022-12-08T09:30:48.013Z,13.30
2022-12-08T09:34:52.393Z,11.93
2022-12-08T09:38:56.625Z,10.65
2022-12-08T09:43:09.415Z,11.25
2022-12-08T09:47:19.194Z,11.27
2022-12-08T09:51:24.423Z,11.55
2022-12-08T09:55:41.268Z,11.68
2022-12-08T09:59:48.655Z,12.85
2022-12-08T10:03:51.472Z,12.13
2022-12-08T10:08:08.250Z,15.30
2022-12-08T10:12:19.762Z,13.38
2022-12-08T10:16:33.948Z,12.43
2022-12-08T10:20:40.874Z,12.85
2022-12-08T10:24:51.975Z,10.98
2022-12-08T10:29:01.133Z,12.02
2022-12-08T10:33:04.411Z,13.30
2022-12-08T10:37:10.948Z,12.48
2022-12-08T10:41:17.999Z,15.63
2022-12-08T10:45:28.634Z,13.43
2022-12-08T10:49:33.471Z,13.05
2022-12-08T10:53:46.330Z,11.00
2022-12-08T10:57:49.865Z,10.88
2022-12-08T11:01:56.188Z,11.80
2022-12-08T11:06:07.061Z,14.85
2022-12-08T11:10:19.423Z,16.58
2022-12-08T11:14:25.904Z,11.98
2022-12-08T11:18:32.271Z,11.13
2022-12-08T11:22:39.487Z,10.07
2022-12-08T11:26:48.817Z,12.52
2022-12-08T11:30:58.492Z,18.45
2022-12-08T11:35:05.545Z,16.80
2022-12-08T11:39:13.491Z,12.57
2022-12-08T11:43:20.067Z,10.95
2022-12-08T11:47:27.291Z,10.27
2022-12-08T11:51:34.354Z,10.90
2022-12-08T11:55:45.160Z,11.15
2022-12-08T11:59:53.237Z,8.98
2022-12-08T12:04:13.746Z,9.68
2022-12-08T12:08:33.900Z,10.38
2022-12-08T12:12:50.698Z,10.45
2022-12-08T12:17:02.428Z,10.05
2022-12-08T12:21:11.599Z,12.20
2022-12-08T12:25:21.592Z,11.82
2022-12-08T12:29:27.382Z,10.00
2022-12-08T12:33:32.220Z,9.40
2022-12-08T12:37:38.727Z,8.32
2022-12-08T12:41:48.767Z,7.55
2022-12-08T12:45:51.664Z,8.20
2022-12-08T12:50:16.171Z,7.75
2022-12-08T12:54:23.427Z,7.15
2022-12-08T12:58:38.566Z,6.25
2022-12-08T13:02:48.599Z,6.60
2022-12-08T13:06:52.165Z,6.93
2022-12-08T13:11:01.761Z,7.55
2022-12-08T13:15:08.046Z,7.38
2022-12-08T13:19:16.624Z,7.75
2022-12-08T13:23:43.410Z,7.70
2022-12-08T13:27:54.910Z,7.45
2022-12-08T13:31:59.456Z,8.05
2022-12-08T13:36:20.238Z,8.63
2022-12-08T13:40:27.995Z,9.13
2022-12-08T13:45:18.672Z,9.93
2022-12-08T13:50:55.430Z,9.35
2022-12-08T13:57:57.108Z,9.48
2022-12-08T14:02:04.680Z,9.43
2022-12-08T14:06:15.717Z,9.43
2022-12-08T14:10:23.021Z,9.50
2022-12-08T14:15:00.785Z,10.05
2022-12-08T14:18:53.170Z,9.07
2022-12-08T14:22:58.881Z,11.10
2022-12-08T14:27:04.222Z,9.55
2022-12-08T14:31:07.728Z,10.90
2022-12-08T14:35:21.894Z,11.85
2022-12-08T14:39:27.551Z,11.02
2022-12-08T14:43:31.318Z,11.15
2022-12-08T14:47:35.170Z,11.23
2022-12-08T14:51:37.995Z,10.98
2022-12-08T14:55:43.587Z,11.43
2022-12-08T14:59:47.195Z,11.25
2022-12-08T15:03:51.464Z,11.50
2022-12-08T15:08:00.777Z,11.45
2022-12-08T15:12:07.523Z,11.63
2022-12-08T15:16:26.445Z,10.85
2022-12-08T15:20:40.047Z,10.60
2022-12-08T15:24:42.867Z,9.93
2022-12-08T15:28:47.089Z,10.98
2022-12-08T15:32:52.205Z,11.05
2022-12-08T15:36:56.100Z,10.82
2022-12-08T15:40:59.323Z,12.27
2022-12-08T15:45:03.751Z,11.75
2022-12-08T15:49:06.619Z,11.82
2022-12-08T15:53:10.846Z,11.70
2022-12-08T15:57:53.104Z,11.55
2022-12-08T16:01:47.695Z,12.20
2022-12-08T16:06:20.470Z,9.80
2022-12-08T16:10:17.384Z,10.45
2022-12-08T16:18:44.532Z,10.52
2022-12-08T16:23:07.553Z,9.68
2022-12-08T16:27:59.511Z,9.73
2022-12-08T16:31:38.939Z,9.57
2022-12-08T16:35:43.531Z,9.65
2022-12-08T16:39:47.134Z,9.52
2022-12-08T16:43:51.109Z,10.20
2022-12-08T16:47:56.842Z,10.10
2022-12-08T16:52:01.115Z,10.30
2022-12-08T16:56:04.167Z,9.70
2022-12-08T17:00:09.349Z,9.38
2022-12-08T17:04:30.972Z,9.32
2022-12-08T17:08:36.011Z,9.02
2022-12-08T17:12:39.013Z,9.13
2022-12-08T17:16:42.235Z,9.23
2022-12-08T17:20:45.135Z,9.32
2022-12-08T17:24:49.411Z,9.25
2022-12-08T17:29:00.592Z,8.43
2022-12-08T17:33:03.965Z,7.57
2022-12-08T17:37:07.064Z,8.60
2022-12-08T17:41:12.323Z,8.57
2022-12-08T17:45:15.173Z,7.90
2022-12-08T17:49:20.589Z,7.72
2022-12-08T17:53:23.791Z,9.48
2022-12-08T17:57:27.935Z,8.52
2022-12-08T18:01:34.234Z,8.88
2022-12-08T18:05:37.200Z,8.70
2022-12-08T18:09:40.102Z,8.70
2022-12-08T18:13:44.483Z,8.52
2022-12-08T18:17:47.770Z,8.93
2022-12-08T18:21:50.601Z,8.18
2022-12-08T18:25:53.411Z,8.02
2022-12-08T18:29:57.566Z,8.15
2022-12-08T18:34:00.382Z,8.45
2022-12-08T18:38:03.247Z,8.57
2022-12-08T18:42:22.651Z,9.32
2022-12-08T18:46:26.972Z,9.18
2022-12-08T18:50:30.105Z,9.48
2022-12-08T18:54:58.216Z,8.68
2022-12-08T18:59:01.253Z,9.32
2022-12-08T19:03:08.299Z,14.73
2022-12-08T19:07:11.420Z,10.85
2022-12-08T19:11:21.420Z,11.02
2022-12-08T19:15:24.380Z,11.02
2022-12-08T19:19:29.291Z,10.65
2022-12-08T19:23:32.151Z,10.35
2022-12-08T19:27:35.063Z,10.60
2022-12-08T19:31:41.909Z,10.93
2022-12-08T19:35:57.192Z,10.02
2022-12-08T19:40:17.669Z,11.15
2022-12-08T19:44:40.257Z,10.07
2022-12-08T19:48:43.421Z,12.80
2022-12-08T19:52:47.673Z,11.57
2022-12-08T19:56:50.813Z,15.57
2022-12-08T20:00:54.000Z,12.52
2022-12-08T20:04:56.995Z,12.10
2022-12-08T20:09:01.418Z,12.65
2022-12-08T20:13:22.739Z,12.57
2022-12-08T20:17:40.415Z,12.73
2022-12-08T20:21:43.661Z,12.10
2022-12-08T20:25:48.045Z,12.30
2022-12-08T20:29:51.669Z,13.23
2022-12-08T20:33:55.288Z,13.23
2022-12-08T20:37:58.129Z,11.40
2022-12-08T20:42:04.557Z,11.48
2022-12-08T20:46:08.942Z,10.52
2022-12-08T20:50:12.507Z,9.50
2022-12-08T20:54:15.489Z,9.95
2022-12-08T20:58:20.999Z,10.38
2022-12-08T21:02:24.103Z,12.90
2022-12-08T21:06:27.877Z,12.30
2022-12-08T21:10:30.904Z,12.27
2022-12-08T21:14:35.459Z,11.00
2022-12-08T21:18:39.923Z,12.23
2022-12-08T21:22:43.232Z,10.48
2022-12-08T21:26:46.214Z,10.80
2022-12-08T21:30:50.476Z,11.00
2022-12-08T21:34:54.607Z,10.73
2022-12-08T21:39:02.366Z,11.18
2022-12-08T21:43:05.422Z,9.48
2022-12-08T21:47:09.883Z,9.35
2022-12-08T21:51:12.936Z,10.57
2022-12-08T21:55:18.711Z,10.65
2022-12-08T21:59:21.669Z,11.00
2022-12-08T22:03:26.622Z,10.70
2022-12-08T22:07:29.996Z,11.98
2022-12-08T22:11:32.994Z,11.55
2022-12-08T22:15:36.987Z,11.60
2022-12-08T22:19:41.148Z,12.63
2022-12-08T22:23:44.827Z,12.77
2022-12-08T22:27:48.241Z,12.77
2022-12-08T22:31:51.504Z,14.63
2022-12-08T22:36:04.763Z,12.18
2022-12-08T22:40:12.440Z,12.82
2022-12-08T22:44:16.339Z,12.48
2022-12-08T22:48:19.623Z,12.98
2022-12-08T22:52:24.071Z,12.95
2022-12-08T22:56:26.963Z,14.13
2022-12-08T23:00:30.047Z,13.77
2022-12-08T23:04:33.120Z,13.20
2022-12-08T23:08:37.632Z,13.25
2022-12-08T23:12:40.559Z,12.00
2022-12-08T23:16:43.406Z,13.75
2022-12-08T23:20:46.512Z,13.27
2022-12-08T23:24:50.744Z,13.80
2022-12-08T23:28:54.092Z,13.88
2022-12-08T23:32:57.342Z,13.40
2022-12-08T23:37:00.425Z,13.52
2022-12-08T23:41:06.463Z,13.55
2022-12-08T23:45:10.103Z,13.75
2022-12-08T23:49:13.054Z,13.20
2022-12-08T23:53:16.085Z,12.55
2022-12-08T23:57:20.264Z,13.57
